sensor_id;sensor_type;location;lat;lon;timestamp;P1;durP1;ratioP1;P2;durP2;ratioP2
39346;SDS011;26262;49.836;6.632;2023-02-15T00:01:10;21.83;;;13.85;;
39346;SDS011;26262;49.836;6.632;2023-02-15T00:03:36;22.38;;;14.63;;
39346;SDS011;26262;49.836;6.632;2023-02-15T00:06:03;20.95;;;14.02;;
39346;SDS011;26262;49.836;6.632;2023-02-15T00:08:29;21.13;;;14.02;;
39346;SDS011;26262;49.836;6.632;2023-02-15T00:11:08;20.50;;;14.43;;
39346;SDS011;26262;49.836;6.632;2023-02-15T00:13:33;21.40;;;14.25;;
39346;SDS011;26262;49.836;6.632;2023-02-15T00:16:04;22.20;;;14.93;;
39346;SDS011;26262;49.836;6.632;2023-02-15T00:18:31;22.08;;;14.20;;
39346;SDS011;26262;49.836;6.632;2023-02-15T00:20:57;23.10;;;15.45;;
39346;SDS011;26262;49.836;6.632;2023-02-15T00:23:23;23.45;;;14.68;;
39346;SDS011;26262;49.836;6.632;2023-02-15T00:25:49;26.38;;;16.58;;
39346;SDS011;26262;49.836;6.632;2023-02-15T00:28:14;21.15;;;13.02;;
39346;SDS011;26262;49.836;6.632;2023-02-15T00:30:40;22.90;;;14.93;;
39346;SDS011;26262;49.836;6.632;2023-02-15T00:33:06;20.92;;;13.73;;
39346;SDS011;26262;49.836;6.632;2023-02-15T00:35:31;21.67;;;14.20;;
39346;SDS011;26262;49.836;6.632;2023-02-15T00:37:57;21.90;;;15.20;;
39346;SDS011;26262;49.836;6.632;2023-02-15T00:40:22;20.85;;;13.70;;
39346;SDS011;26262;49.836;6.632;2023-02-15T00:42:48;20.13;;;13.73;;
39346;SDS011;26262;49.836;6.632;2023-02-15T00:45:13;20.58;;;13.43;;
39346;SDS011;26262;49.836;6.632;2023-02-15T00:47:39;18.42;;;13.07;;
39346;SDS011;26262;49.836;6.632;2023-02-15T00:50:05;18.40;;;14.30;;
39346;SDS011;26262;49.836;6.632;2023-02-15T00:52:31;19.60;;;13.02;;
39346;SDS011;26262;49.836;6.632;2023-02-15T00:54:56;21.90;;;14.02;;
39346;SDS011;26262;49.836;6.632;2023-02-15T00:57:22;25.83;;;13.10;;
39346;SDS011;26262;49.836;6.632;2023-02-15T00:59:47;19.33;;;12.95;;
39346;SDS011;26262;49.836;6.632;2023-02-15T01:02:13;24.95;;;13.75;;
39346;SDS011;26262;49.836;6.632;2023-02-15T01:04:39;22.08;;;14.13;;
39346;SDS011;26262;49.836;6.632;2023-02-15T01:07:04;18.85;;;13.10;;
39346;SDS011;26262;49.836;6.632;2023-02-15T01:09:30;21.48;;;13.20;;
39346;SDS011;26262;49.836;6.632;2023-02-15T01:11:55;22.20;;;14.85;;
39346;SDS011;26262;49.836;6.632;2023-02-15T01:14:21;20.45;;;13.85;;
39346;SDS011;26262;49.836;6.632;2023-02-15T01:16:46;17.50;;;12.65;;
39346;SDS011;26262;49.836;6.632;2023-02-15T01:19:12;19.65;;;13.40;;
39346;SDS011;26262;49.836;6.632;2023-02-15T01:21:37;18.73;;;13.40;;
39346;SDS011;26262;49.836;6.632;2023-02-15T01:24:05;18.63;;;12.15;;
39346;SDS011;26262;49.836;6.632;2023-02-15T01:26:38;20.15;;;13.00;;
39346;SDS011;26262;49.836;6.632;2023-02-15T01:29:04;18.65;;;12.55;;
39346;SDS011;26262;49.836;6.632;2023-02-15T01:31:29;18.45;;;12.52;;
39346;SDS011;26262;49.836;6.632;2023-02-15T01:33:55;18.70;;;12.70;;
39346;SDS011;26262;49.836;6.632;2023-02-15T01:36:20;19.52;;;12.65;;
39346;SDS011;26262;49.836;6.632;2023-02-15T01:38:46;23.52;;;13.15;;
39346;SDS011;26262;49.836;6.632;2023-02-15T01:41:11;18.95;;;12.50;;
39346;SDS011;26262;49.836;6.632;2023-02-15T01:43:55;21.60;;;13.55;;
39346;SDS011;26262;49.836;6.632;2023-02-15T01:46:24;19.98;;;13.45;;
39346;SDS011;26262;49.836;6.632;2023-02-15T01:49:05;21.63;;;13.32;;
39346;SDS011;26262;49.836;6.632;2023-02-15T01:51:36;19.65;;;12.82;;
39346;SDS011;26262;49.836;6.632;2023-02-15T01:56:35;21.08;;;12.65;;
39346;SDS011;26262;49.836;6.632;2023-02-15T01:59:19;21.92;;;13.65;;
39346;SDS011;26262;49.836;6.632;2023-02-15T02:01:48;18.92;;;12.68;;
39346;SDS011;26262;49.836;6.632;2023-02-15T02:06:46;22.80;;;12.10;;
39346;SDS011;26262;49.836;6.632;2023-02-15T02:11:39;23.17;;;13.93;;
39346;SDS011;26262;49.836;6.632;2023-02-15T02:14:06;22.60;;;13.25;;
39346;SDS011;26262;49.836;6.632;2023-02-15T02:27:34;24.98;;;14.23;;
39346;SDS011;26262;49.836;6.632;2023-02-15T02:35:38;24.02;;;13.82;;
39346;SDS011;26262;49.836;6.632;2023-02-15T02:38:11;21.15;;;14.63;;
39346;SDS011;26262;49.836;6.632;2023-02-15T02:41:30;24.55;;;15.95;;
39346;SDS011;26262;49.836;6.632;2023-02-15T02:46:24;24.38;;;16.63;;
39346;SDS011;26262;49.836;6.632;2023-02-15T02:48:55;22.40;;;15.27;;
39346;SDS011;26262;49.836;6.632;2023-02-15T02:51:21;25.63;;;15.82;;
39346;SDS011;26262;49.836;6.632;2023-02-15T02:53:51;28.73;;;17.23;;
39346;SDS011;26262;49.836;6.632;2023-02-15T02:56:24;24.48;;;14.93;;
39346;SDS011;26262;49.836;6.632;2023-02-15T02:58:59;26.02;;;16.35;;
39346;SDS011;26262;49.836;6.632;2023-02-15T03:01:55;25.98;;;16.40;;
39346;SDS011;26262;49.836;6.632;2023-02-15T03:04:33;25.05;;;16.00;;
39346;SDS011;26262;49.836;6.632;2023-02-15T03:07:02;29.23;;;16.35;;
39346;SDS011;26262;49.836;6.632;2023-02-15T03:09:42;24.13;;;15.57;;
39346;SDS011;26262;49.836;6.632;2023-02-15T03:12:16;25.90;;;15.77;;
39346;SDS011;26262;49.836;6.632;2023-02-15T03:14:46;23.15;;;15.25;;
39346;SDS011;26262;49.836;6.632;2023-02-15T03:17:16;22.70;;;14.98;;
39346;SDS011;26262;49.836;6.632;2023-02-15T03:19:45;24.23;;;14.05;;
39346;SDS011;26262;49.836;6.632;2023-02-15T03:22:17;22.60;;;15.15;;
39346;SDS011;26262;49.836;6.632;2023-02-15T03:24:47;24.98;;;15.48;;
39346;SDS011;26262;49.836;6.632;2023-02-15T03:27:35;24.05;;;15.30;;
39346;SDS011;26262;49.836;6.632;2023-02-15T03:30:04;22.90;;;16.33;;
39346;SDS011;26262;49.836;6.632;2023-02-15T03:32:32;29.23;;;17.10;;
39346;SDS011;26262;49.836;6.632;2023-02-15T03:34:59;29.42;;;18.23;;
39346;SDS011;26262;49.836;6.632;2023-02-15T03:37:26;28.05;;;18.52;;
39346;SDS011;26262;49.836;6.632;2023-02-15T03:43:23;30.20;;;19.10;;
39346;SDS011;26262;49.836;6.632;2023-02-15T03:45:55;30.17;;;18.67;;
39346;SDS011;26262;49.836;6.632;2023-02-15T03:48:29;29.33;;;18.08;;
39346;SDS011;26262;49.836;6.632;2023-02-15T03:51:02;28.23;;;18.48;;
39346;SDS011;26262;49.836;6.632;2023-02-15T03:53:51;26.67;;;18.15;;
39346;SDS011;26262;49.836;6.632;2023-02-15T03:56:19;29.17;;;19.08;;
39346;SDS011;26262;49.836;6.632;2023-02-15T03:58:44;27.83;;;19.10;;
39346;SDS011;26262;49.836;6.632;2023-02-15T04:01:33;26.60;;;18.42;;
39346;SDS011;26262;49.836;6.632;2023-02-15T04:04:23;28.08;;;19.27;;
39346;SDS011;26262;49.836;6.632;2023-02-15T04:06:56;25.98;;;18.48;;
39346;SDS011;26262;49.836;6.632;2023-02-15T04:09:22;28.42;;;18.20;;
39346;SDS011;26262;49.836;6.632;2023-02-15T04:12:06;27.75;;;18.70;;
39346;SDS011;26262;49.836;6.632;2023-02-15T04:14:32;29.05;;;20.27;;
39346;SDS011;26262;49.836;6.632;2023-02-15T04:17:16;31.02;;;19.33;;
39346;SDS011;26262;49.836;6.632;2023-02-15T04:19:42;28.90;;;19.95;;
39346;SDS011;26262;49.836;6.632;2023-02-15T04:22:25;29.27;;;18.52;;
39346;SDS011;26262;49.836;6.632;2023-02-15T04:25:09;29.58;;;19.98;;
39346;SDS011;26262;49.836;6.632;2023-02-15T04:27:36;32.17;;;21.35;;
39346;SDS011;26262;49.836;6.632;2023-02-15T04:30:02;31.10;;;20.02;;
39346;SDS011;26262;49.836;6.632;2023-02-15T04:32:28;28.33;;;18.45;;
39346;SDS011;26262;49.836;6.632;2023-02-15T04:34:54;28.00;;;18.27;;
39346;SDS011;26262;49.836;6.632;2023-02-15T04:37:19;29.40;;;18.98;;
39346;SDS011;26262;49.836;6.632;2023-02-15T04:39:45;29.35;;;18.80;;
39346;SDS011;26262;49.836;6.632;2023-02-15T04:42:10;27.52;;;18.15;;
39346;SDS011;26262;49.836;6.632;2023-02-15T04:44:36;28.58;;;18.48;;
39346;SDS011;26262;49.836;6.632;2023-02-15T04:47:01;28.50;;;18.33;;
39346;SDS011;26262;49.836;6.632;2023-02-15T04:49:27;27.13;;;18.13;;
39346;SDS011;26262;49.836;6.632;2023-02-15T04:51:52;29.10;;;18.50;;
39346;SDS011;26262;49.836;6.632;2023-02-15T04:54:18;29.10;;;19.10;;
39346;SDS011;26262;49.836;6.632;2023-02-15T04:56:43;27.30;;;18.30;;
39346;SDS011;26262;49.836;6.632;2023-02-15T04:59:10;27.67;;;19.45;;
39346;SDS011;26262;49.836;6.632;2023-02-15T05:01:36;29.70;;;19.92;;
39346;SDS011;26262;49.836;6.632;2023-02-15T05:04:02;27.45;;;18.50;;
39346;SDS011;26262;49.836;6.632;2023-02-15T05:06:28;27.02;;;17.38;;
39346;SDS011;26262;49.836;6.632;2023-02-15T05:08:54;28.55;;;19.75;;
39346;SDS011;26262;49.836;6.632;2023-02-15T05:11:20;29.35;;;20.23;;
39346;SDS011;26262;49.836;6.632;2023-02-15T05:13:45;25.20;;;18.92;;
39346;SDS011;26262;49.836;6.632;2023-02-15T05:16:11;26.27;;;19.00;;
39346;SDS011;26262;49.836;6.632;2023-02-15T05:18:36;26.63;;;17.52;;
39346;SDS011;26262;49.836;6.632;2023-02-15T05:21:02;26.40;;;20.02;;
39346;SDS011;26262;49.836;6.632;2023-02-15T05:23:28;24.48;;;16.98;;
39346;SDS011;26262;49.836;6.632;2023-02-15T05:25:53;23.35;;;18.20;;
39346;SDS011;26262;49.836;6.632;2023-02-15T05:28:38;23.55;;;18.40;;
39346;SDS011;26262;49.836;6.632;2023-02-15T05:31:10;21.67;;;16.08;;
39346;SDS011;26262;49.836;6.632;2023-02-15T05:33:37;23.13;;;17.33;;
39346;SDS011;26262;49.836;6.632;2023-02-15T05:36:04;24.40;;;18.48;;
39346;SDS011;26262;49.836;6.632;2023-02-15T05:38:30;25.08;;;17.77;;
39346;SDS011;26262;49.836;6.632;2023-02-15T05:40:56;23.48;;;17.30;;
39346;SDS011;26262;49.836;6.632;2023-02-15T05:43:22;23.05;;;17.40;;
39346;SDS011;26262;49.836;6.632;2023-02-15T05:45:48;21.58;;;17.67;;
39346;SDS011;26262;49.836;6.632;2023-02-15T05:48:15;23.77;;;18.40;;
39346;SDS011;26262;49.836;6.632;2023-02-15T05:50:42;25.70;;;19.63;;
39346;SDS011;26262;49.836;6.632;2023-02-15T05:53:07;24.58;;;18.38;;
39346;SDS011;26262;49.836;6.632;2023-02-15T05:55:33;26.53;;;18.83;;
39346;SDS011;26262;49.836;6.632;2023-02-15T05:57:58;26.33;;;18.67;;
39346;SDS011;26262;49.836;6.632;2023-02-15T06:00:24;27.90;;;19.13;;
39346;SDS011;26262;49.836;6.632;2023-02-15T06:02:50;28.15;;;19.55;;
39346;SDS011;26262;49.836;6.632;2023-02-15T06:05:15;29.40;;;19.30;;
39346;SDS011;26262;49.836;6.632;2023-02-15T06:07:44;34.50;;;19.23;;
39346;SDS011;26262;49.836;6.632;2023-02-15T06:10:10;29.63;;;19.70;;
39346;SDS011;26262;49.836;6.632;2023-02-15T06:12:36;28.65;;;18.45;;
39346;SDS011;26262;49.836;6.632;2023-02-15T06:15:02;30.67;;;19.50;;
39346;SDS011;26262;49.836;6.632;2023-02-15T06:17:28;28.95;;;19.20;;
39346;SDS011;26262;49.836;6.632;2023-02-15T06:19:54;35.03;;;20.05;;
39346;SDS011;26262;49.836;6.632;2023-02-15T06:22:19;33.28;;;20.33;;
39346;SDS011;26262;49.836;6.632;2023-02-15T06:24:45;32.37;;;20.67;;
39346;SDS011;26262;49.836;6.632;2023-02-15T06:27:11;33.13;;;21.53;;
39346;SDS011;26262;49.836;6.632;2023-02-15T06:29:37;38.63;;;23.00;;
39346;SDS011;26262;49.836;6.632;2023-02-15T06:32:02;33.85;;;21.48;;
39346;SDS011;26262;49.836;6.632;2023-02-15T06:34:28;33.57;;;21.57;;
39346;SDS011;26262;49.836;6.632;2023-02-15T06:36:54;37.83;;;21.77;;
39346;SDS011;26262;49.836;6.632;2023-02-15T06:39:19;35.17;;;21.77;;
39346;SDS011;26262;49.836;6.632;2023-02-15T06:41:45;35.38;;;21.55;;
39346;SDS011;26262;49.836;6.632;2023-02-15T06:44:10;38.00;;;22.37;;
39346;SDS011;26262;49.836;6.632;2023-02-15T06:46:36;32.67;;;21.50;;
39346;SDS011;26262;49.836;6.632;2023-02-15T06:49:01;33.57;;;21.40;;
39346;SDS011;26262;49.836;6.632;2023-02-15T06:51:27;43.37;;;23.33;;
39346;SDS011;26262;49.836;6.632;2023-02-15T06:53:53;37.27;;;22.27;;
39346;SDS011;26262;49.836;6.632;2023-02-15T06:56:18;60.97;;;23.70;;
39346;SDS011;26262;49.836;6.632;2023-02-15T06:58:43;36.27;;;22.97;;
39346;SDS011;26262;49.836;6.632;2023-02-15T07:01:11;33.93;;;22.07;;
39346;SDS011;26262;49.836;6.632;2023-02-15T07:03:36;33.10;;;21.43;;
39346;SDS011;26262;49.836;6.632;2023-02-15T07:06:02;41.87;;;21.10;;
39346;SDS011;26262;49.836;6.632;2023-02-15T07:08:33;30.93;;;20.80;;
39346;SDS011;26262;49.836;6.632;2023-02-15T07:11:02;34.47;;;20.37;;
39346;SDS011;26262;49.836;6.632;2023-02-15T07:13:47;30.77;;;19.27;;
39346;SDS011;26262;49.836;6.632;2023-02-15T07:16:12;31.20;;;19.10;;
39346;SDS011;26262;49.836;6.632;2023-02-15T07:18:38;28.17;;;18.33;;
39346;SDS011;26262;49.836;6.632;2023-02-15T07:21:05;31.08;;;18.88;;
39346;SDS011;26262;49.836;6.632;2023-02-15T07:23:33;26.55;;;17.20;;
39346;SDS011;26262;49.836;6.632;2023-02-15T07:26:02;24.77;;;16.58;;
39346;SDS011;26262;49.836;6.632;2023-02-15T07:28:28;29.17;;;18.30;;
39346;SDS011;26262;49.836;6.632;2023-02-15T07:30:54;24.70;;;16.17;;
39346;SDS011;26262;49.836;6.632;2023-02-15T07:33:19;25.55;;;16.77;;
39346;SDS011;26262;49.836;6.632;2023-02-15T07:35:48;25.45;;;16.27;;
39346;SDS011;26262;49.836;6.632;2023-02-15T07:38:14;25.27;;;16.80;;
39346;SDS011;26262;49.836;6.632;2023-02-15T07:40:39;24.45;;;15.25;;
39346;SDS011;26262;49.836;6.632;2023-02-15T07:43:05;23.48;;;16.10;;
39346;SDS011;26262;49.836;6.632;2023-02-15T07:45:30;24.23;;;16.25;;
39346;SDS011;26262;49.836;6.632;2023-02-15T07:47:56;26.88;;;17.17;;
39346;SDS011;26262;49.836;6.632;2023-02-15T07:50:22;27.10;;;17.20;;
39346;SDS011;26262;49.836;6.632;2023-02-15T07:52:47;25.95;;;16.65;;
39346;SDS011;26262;49.836;6.632;2023-02-15T07:55:13;35.97;;;18.55;;
39346;SDS011;26262;49.836;6.632;2023-02-15T07:57:42;29.85;;;17.95;;
39346;SDS011;26262;49.836;6.632;2023-02-15T08:00:09;32.58;;;20.73;;
39346;SDS011;26262;49.836;6.632;2023-02-15T08:02:36;29.92;;;18.83;;
39346;SDS011;26262;49.836;6.632;2023-02-15T08:05:02;29.20;;;18.67;;
39346;SDS011;26262;49.836;6.632;2023-02-15T08:07:27;30.52;;;19.58;;
39346;SDS011;26262;49.836;6.632;2023-02-15T08:09:53;43.75;;;19.90;;
39346;SDS011;26262;49.836;6.632;2023-02-15T08:12:19;30.17;;;18.97;;
39346;SDS011;26262;49.836;6.632;2023-02-15T08:14:44;30.02;;;18.42;;
39346;SDS011;26262;49.836;6.632;2023-02-15T08:17:10;34.35;;;19.58;;
39346;SDS011;26262;49.836;6.632;2023-02-15T08:19:35;30.67;;;19.27;;
39346;SDS011;26262;49.836;6.632;2023-02-15T08:22:02;27.30;;;18.60;;
39346;SDS011;26262;49.836;6.632;2023-02-15T08:24:30;26.50;;;17.08;;
39346;SDS011;26262;49.836;6.632;2023-02-15T08:27:01;26.15;;;16.38;;
39346;SDS011;26262;49.836;6.632;2023-02-15T08:29:28;24.75;;;16.60;;
39346;SDS011;26262;49.836;6.632;2023-02-15T08:31:56;25.85;;;17.23;;
39346;SDS011;26262;49.836;6.632;2023-02-15T08:34:24;27.58;;;18.20;;
39346;SDS011;26262;49.836;6.632;2023-02-15T08:36:49;27.75;;;19.15;;
39346;SDS011;26262;49.836;6.632;2023-02-15T08:39:16;28.70;;;19.52;;
39346;SDS011;26262;49.836;6.632;2023-02-15T08:41:43;29.27;;;19.58;;
39346;SDS011;26262;49.836;6.632;2023-02-15T08:44:10;32.10;;;20.90;;
39346;SDS011;26262;49.836;6.632;2023-02-15T08:46:37;33.23;;;19.60;;
39346;SDS011;26262;49.836;6.632;2023-02-15T08:49:05;32.03;;;19.87;;
39346;SDS011;26262;49.836;6.632;2023-02-15T08:51:32;29.17;;;20.98;;
39346;SDS011;26262;49.836;6.632;2023-02-15T08:54:00;30.10;;;20.83;;
39346;SDS011;26262;49.836;6.632;2023-02-15T08:56:28;30.20;;;20.15;;
39346;SDS011;26262;49.836;6.632;2023-02-15T08:58:57;29.50;;;20.33;;
39346;SDS011;26262;49.836;6.632;2023-02-15T09:01:23;27.75;;;18.88;;
39346;SDS011;26262;49.836;6.632;2023-02-15T09:06:19;27.58;;;19.02;;
39346;SDS011;26262;49.836;6.632;2023-02-15T09:08:46;25.70;;;18.55;;
39346;SDS011;26262;49.836;6.632;2023-02-15T09:11:46;26.40;;;17.87;;
39346;SDS011;26262;49.836;6.632;2023-02-15T09:14:06;25.03;;;17.03;;
39346;SDS011;26262;49.836;6.632;2023-02-15T09:16:34;24.60;;;17.67;;
39346;SDS011;26262;49.836;6.632;2023-02-15T09:19:01;26.52;;;17.35;;
39346;SDS011;26262;49.836;6.632;2023-02-15T09:21:29;25.90;;;17.90;;
39346;SDS011;26262;49.836;6.632;2023-02-15T09:23:57;27.67;;;18.38;;
39346;SDS011;26262;49.836;6.632;2023-02-15T09:26:25;24.55;;;17.85;;
39346;SDS011;26262;49.836;6.632;2023-02-15T09:28:52;26.05;;;17.50;;
39346;SDS011;26262;49.836;6.632;2023-02-15T09:31:25;25.65;;;17.15;;
39346;SDS011;26262;49.836;6.632;2023-02-15T09:33:53;35.95;;;26.63;;
39346;SDS011;26262;49.836;6.632;2023-02-15T09:36:20;23.50;;;16.58;;
39346;SDS011;26262;49.836;6.632;2023-02-15T09:38:47;25.07;;;18.20;;
39346;SDS011;26262;49.836;6.632;2023-02-15T10:01:24;25.92;;;17.42;;
39346;SDS011;26262;49.836;6.632;2023-02-15T10:21:15;22.60;;;16.50;;
39346;SDS011;26262;49.836;6.632;2023-02-15T10:26:48;22.85;;;16.13;;
39346;SDS011;26262;49.836;6.632;2023-02-15T10:31:49;22.00;;;15.27;;
39346;SDS011;26262;49.836;6.632;2023-02-15T10:39:40;25.27;;;17.40;;
39346;SDS011;26262;49.836;6.632;2023-02-15T10:42:20;22.27;;;15.70;;
39346;SDS011;26262;49.836;6.632;2023-02-15T10:55:47;21.90;;;16.65;;
39346;SDS011;26262;49.836;6.632;2023-02-15T11:03:36;20.55;;;15.23;;
39346;SDS011;26262;49.836;6.632;2023-02-15T11:06:16;19.25;;;15.02;;
39346;SDS011;26262;49.836;6.632;2023-02-15T11:08:50;18.17;;;13.43;;
39346;SDS011;26262;49.836;6.632;2023-02-15T11:11:26;17.90;;;13.57;;
39346;SDS011;26262;49.836;6.632;2023-02-15T11:13:56;16.63;;;12.75;;
39346;SDS011;26262;49.836;6.632;2023-02-15T11:16:25;16.13;;;12.95;;
39346;SDS011;26262;49.836;6.632;2023-02-15T11:18:58;15.82;;;11.95;;
39346;SDS011;26262;49.836;6.632;2023-02-15T11:21:36;15.18;;;12.38;;
39346;SDS011;26262;49.836;6.632;2023-02-15T11:24:10;14.07;;;12.23;;
39346;SDS011;26262;49.836;6.632;2023-02-15T11:37:45;14.18;;;12.10;;
39346;SDS011;26262;49.836;6.632;2023-02-15T11:40:24;14.82;;;12.25;;
39346;SDS011;26262;49.836;6.632;2023-02-15T11:42:56;13.93;;;12.07;;
39346;SDS011;26262;49.836;6.632;2023-02-15T11:45:26;13.55;;;11.45;;
39346;SDS011;26262;49.836;6.632;2023-02-15T11:47:53;14.10;;;12.48;;
39346;SDS011;26262;49.836;6.632;2023-02-15T11:50:20;13.32;;;11.65;;
39346;SDS011;26262;49.836;6.632;2023-02-15T11:52:49;15.82;;;12.48;;
39346;SDS011;26262;49.836;6.632;2023-02-15T11:55:18;15.57;;;13.63;;
39346;SDS011;26262;49.836;6.632;2023-02-15T11:57:50;15.40;;;13.13;;
39346;SDS011;26262;49.836;6.632;2023-02-15T12:00:40;14.38;;;12.70;;
39346;SDS011;26262;49.836;6.632;2023-02-15T12:03:16;16.15;;;14.27;;
39346;SDS011;26262;49.836;6.632;2023-02-15T12:05:49;14.95;;;12.75;;
39346;SDS011;26262;49.836;6.632;2023-02-15T12:08:19;14.93;;;13.27;;
39346;SDS011;26262;49.836;6.632;2023-02-15T12:13:22;15.35;;;12.27;;
39346;SDS011;26262;49.836;6.632;2023-02-15T12:15:49;16.08;;;13.10;;
39346;SDS011;26262;49.836;6.632;2023-02-15T12:18:18;16.20;;;14.00;;
39346;SDS011;26262;49.836;6.632;2023-02-15T12:20:46;14.57;;;12.40;;
39346;SDS011;26262;49.836;6.632;2023-02-15T12:23:14;15.02;;;12.57;;
39346;SDS011;26262;49.836;6.632;2023-02-15T12:25:41;15.27;;;13.55;;
39346;SDS011;26262;49.836;6.632;2023-02-15T12:30:55;14.65;;;12.50;;
39346;SDS011;26262;49.836;6.632;2023-02-15T12:36:04;18.77;;;15.82;;
39346;SDS011;26262;49.836;6.632;2023-02-15T12:38:37;13.85;;;12.30;;
39346;SDS011;26262;49.836;6.632;2023-02-15T12:41:22;14.48;;;12.20;;
39346;SDS011;26262;49.836;6.632;2023-02-15T12:44:02;14.85;;;11.60;;
39346;SDS011;26262;49.836;6.632;2023-02-15T12:46:30;16.30;;;12.15;;
39346;SDS011;26262;49.836;6.632;2023-02-15T12:49:07;14.43;;;12.00;;
39346;SDS011;26262;49.836;6.632;2023-02-15T12:51:48;17.10;;;14.30;;
39346;SDS011;26262;49.836;6.632;2023-02-15T12:57:12;18.55;;;15.52;;
39346;SDS011;26262;49.836;6.632;2023-02-15T13:00:00;17.08;;;14.30;;
39346;SDS011;26262;49.836;6.632;2023-02-15T13:02:43;16.55;;;13.85;;
39346;SDS011;26262;49.836;6.632;2023-02-15T13:05:19;16.45;;;14.23;;
39346;SDS011;26262;49.836;6.632;2023-02-15T13:07:58;17.02;;;14.18;;
39346;SDS011;26262;49.836;6.632;2023-02-15T13:10:35;17.73;;;13.80;;
39346;SDS011;26262;49.836;6.632;2023-02-15T13:13:14;18.55;;;15.30;;
39346;SDS011;26262;49.836;6.632;2023-02-15T13:15:46;18.05;;;14.45;;
39346;SDS011;26262;49.836;6.632;2023-02-15T13:18:16;17.52;;;15.15;;
39346;SDS011;26262;49.836;6.632;2023-02-15T13:20:48;17.00;;;14.73;;
39346;SDS011;26262;49.836;6.632;2023-02-15T13:23:24;16.52;;;14.57;;
39346;SDS011;26262;49.836;6.632;2023-02-15T13:25:52;16.42;;;13.88;;
39346;SDS011;26262;49.836;6.632;2023-02-15T13:28:25;19.40;;;15.10;;
39346;SDS011;26262;49.836;6.632;2023-02-15T13:31:01;17.25;;;13.63;;
39346;SDS011;26262;49.836;6.632;2023-02-15T13:33:34;15.48;;;13.48;;
39346;SDS011;26262;49.836;6.632;2023-02-15T13:36:04;17.48;;;14.10;;
39346;SDS011;26262;49.836;6.632;2023-02-15T13:41:21;16.40;;;14.10;;
39346;SDS011;26262;49.836;6.632;2023-02-15T13:49:45;22.77;;;16.80;;
39346;SDS011;26262;49.836;6.632;2023-02-15T13:52:25;22.02;;;15.68;;
39346;SDS011;26262;49.836;6.632;2023-02-15T13:54:56;19.10;;;15.98;;
39346;SDS011;26262;49.836;6.632;2023-02-15T13:57:49;19.60;;;14.63;;
39346;SDS011;26262;49.836;6.632;2023-02-15T14:00:47;18.80;;;14.57;;
39346;SDS011;26262;49.836;6.632;2023-02-15T14:20:20;19.30;;;14.45;;
39346;SDS011;26262;49.836;6.632;2023-02-15T14:26:04;18.48;;;14.43;;
39346;SDS011;26262;49.836;6.632;2023-02-15T14:31:28;21.98;;;15.65;;
39346;SDS011;26262;49.836;6.632;2023-02-15T14:33:59;22.30;;;15.35;;
39346;SDS011;26262;49.836;6.632;2023-02-15T14:36:24;19.50;;;14.95;;
39346;SDS011;26262;49.836;6.632;2023-02-15T14:42:04;23.00;;;16.23;;
39346;SDS011;26262;49.836;6.632;2023-02-15T14:47:09;24.25;;;19.08;;
39346;SDS011;26262;49.836;6.632;2023-02-15T14:52:11;23.67;;;17.00;;
39346;SDS011;26262;49.836;6.632;2023-02-15T14:59:45;21.08;;;15.15;;
39346;SDS011;26262;49.836;6.632;2023-02-15T15:07:41;23.20;;;17.23;;
39346;SDS011;26262;49.836;6.632;2023-02-15T15:12:46;22.83;;;15.82;;
39346;SDS011;26262;49.836;6.632;2023-02-15T15:25:40;35.15;;;25.30;;
39346;SDS011;26262;49.836;6.632;2023-02-15T15:33:53;29.27;;;21.60;;
39346;SDS011;26262;49.836;6.632;2023-02-15T15:36:37;31.67;;;23.35;;
39346;SDS011;26262;49.836;6.632;2023-02-15T15:42:00;30.55;;;21.00;;
39346;SDS011;26262;49.836;6.632;2023-02-15T15:49:58;34.53;;;23.95;;
39346;SDS011;26262;49.836;6.632;2023-02-15T15:52:24;29.75;;;21.70;;
39346;SDS011;26262;49.836;6.632;2023-02-15T15:54:58;27.25;;;20.02;;
39346;SDS011;26262;49.836;6.632;2023-02-15T15:57:33;28.08;;;19.08;;
39346;SDS011;26262;49.836;6.632;2023-02-15T16:00:03;24.90;;;17.75;;
39346;SDS011;26262;49.836;6.632;2023-02-15T16:02:30;24.08;;;16.65;;
39346;SDS011;26262;49.836;6.632;2023-02-15T16:05:05;21.42;;;16.42;;
39346;SDS011;26262;49.836;6.632;2023-02-15T16:07:32;20.38;;;14.60;;
39346;SDS011;26262;49.836;6.632;2023-02-15T16:12:25;20.83;;;14.93;;
39346;SDS011;26262;49.836;6.632;2023-02-15T16:14:55;21.08;;;13.65;;
39346;SDS011;26262;49.836;6.632;2023-02-15T16:17:22;18.60;;;13.77;;
39346;SDS011;26262;49.836;6.632;2023-02-15T16:20:01;24.08;;;16.70;;
39346;SDS011;26262;49.836;6.632;2023-02-15T16:22:38;25.80;;;15.27;;
39346;SDS011;26262;49.836;6.632;2023-02-15T16:27:56;63.05;;;30.27;;
39346;SDS011;26262;49.836;6.632;2023-02-15T16:30:29;164.65;;;58.08;;
39346;SDS011;26262;49.836;6.632;2023-02-15T16:33:09;107.13;;;40.78;;
39346;SDS011;26262;49.836;6.632;2023-02-15T16:35:37;101.15;;;43.13;;
39346;SDS011;26262;49.836;6.632;2023-02-15T16:38:05;136.02;;;52.85;;
39346;SDS011;26262;49.836;6.632;2023-02-15T16:40:45;144.75;;;59.58;;
39346;SDS011;26262;49.836;6.632;2023-02-15T16:43:15;151.48;;;65.15;;
39346;SDS011;26262;49.836;6.632;2023-02-15T16:45:50;100.80;;;49.63;;
39346;SDS011;26262;49.836;6.632;2023-02-15T16:48:21;59.67;;;35.40;;
39346;SDS011;26262;49.836;6.632;2023-02-15T16:50:51;52.03;;;30.23;;
39346;SDS011;26262;49.836;6.632;2023-02-15T16:53:20;34.28;;;23.08;;
39346;SDS011;26262;49.836;6.632;2023-02-15T16:55:50;28.15;;;19.52;;
39346;SDS011;26262;49.836;6.632;2023-02-15T16:58:25;26.75;;;19.45;;
39346;SDS011;26262;49.836;6.632;2023-02-15T17:00:57;25.83;;;17.88;;
39346;SDS011;26262;49.836;6.632;2023-02-15T17:03:25;30.35;;;19.95;;
39346;SDS011;26262;49.836;6.632;2023-02-15T17:05:52;34.53;;;21.92;;
39346;SDS011;26262;49.836;6.632;2023-02-15T17:08:32;46.25;;;26.45;;
39346;SDS011;26262;49.836;6.632;2023-02-15T17:13:36;71.70;;;43.28;;
39346;SDS011;26262;49.836;6.632;2023-02-15T17:18:49;32.90;;;22.27;;
39346;SDS011;26262;49.836;6.632;2023-02-15T17:21:23;27.55;;;18.98;;
39346;SDS011;26262;49.836;6.632;2023-02-15T17:23:56;24.30;;;16.98;;
39346;SDS011;26262;49.836;6.632;2023-02-15T17:26:29;20.17;;;15.00;;
39346;SDS011;26262;49.836;6.632;2023-02-15T17:28:58;25.20;;;17.10;;
39346;SDS011;26262;49.836;6.632;2023-02-15T17:31:27;24.65;;;17.42;;
39346;SDS011;26262;49.836;6.632;2023-02-15T17:33:57;29.88;;;18.77;;
39346;SDS011;26262;49.836;6.632;2023-02-15T17:36:24;40.83;;;20.52;;
39346;SDS011;26262;49.836;6.632;2023-02-15T17:41:22;50.30;;;23.95;;
39346;SDS011;26262;49.836;6.632;2023-02-15T17:43:48;67.93;;;28.73;;
39346;SDS011;26262;49.836;6.632;2023-02-15T17:46:14;108.60;;;41.95;;
39346;SDS011;26262;49.836;6.632;2023-02-15T17:48:43;107.07;;;42.53;;
39346;SDS011;26262;49.836;6.632;2023-02-15T17:51:12;116.70;;;47.25;;
39346;SDS011;26262;49.836;6.632;2023-02-15T17:53:39;92.60;;;41.50;;
39346;SDS011;26262;49.836;6.632;2023-02-15T17:56:05;60.33;;;30.95;;
39346;SDS011;26262;49.836;6.632;2023-02-15T17:58:36;61.95;;;33.47;;
39346;SDS011;26262;49.836;6.632;2023-02-15T18:01:05;60.35;;;32.60;;
39346;SDS011;26262;49.836;6.632;2023-02-15T18:03:54;81.88;;;44.10;;
39346;SDS011;26262;49.836;6.632;2023-02-15T18:06:39;54.70;;;30.67;;